sensor_id;sensor_type;location;lat;lon;timestamp;temperature;humidity
61412;DHT22;47278;49.732;7.690;2022-12-18T00:01:23;-6.10;99.90
61412;DHT22;47278;49.732;7.690;2022-12-18T00:03:49;-6.30;99.90
61412;DHT22;47278;49.732;7.690;2022-12-18T00:06:15;-6.20;99.90
61412;DHT22;47278;49.732;7.690;2022-12-18T00:08:41;-6.10;99.90
61412;DHT22;47278;49.732;7.690;2022-12-18T00:11:07;-6.10;99.90
61412;DHT22;47278;49.732;7.690;2022-12-18T00:13:33;-6.10;99.90
61412;DHT22;47278;49.732;7.690;2022-12-18T00:16:03;-6.10;99.90
61412;DHT22;47278;49.732;7.690;2022-12-18T00:18:29;-6.10;99.90
61412;DHT22;47278;49.732;7.690;2022-12-18T00:20:57;-6.10;99.90
61412;DHT22;47278;49.732;7.690;2022-12-18T00:23:23;-5.90;99.90
61412;DHT22;47278;49.732;7.690;2022-12-18T00:25:48;-6.00;99.90
61412;DHT22;47278;49.732;7.690;2022-12-18T00:28:14;-6.00;99.90
61412;DHT22;47278;49.732;7.690;2022-12-18T00:30:40;-6.10;99.90
61412;DHT22;47278;49.732;7.690;2022-12-18T00:33:05;-6.10;99.90
61412;DHT22;47278;49.732;7.690;2022-12-18T00:35:31;-6.00;99.90
61412;DHT22;47278;49.732;7.690;2022-12-18T00:37:56;-5.90;99.90
61412;DHT22;47278;49.732;7.690;2022-12-18T00:40:22;-3.70;99.90
61412;DHT22;47278;49.732;7.690;2022-12-18T00:42:47;-5.80;99.90
61412;DHT22;47278;49.732;7.690;2022-12-18T00:45:26;-5.90;99.90
61412;DHT22;47278;49.732;7.690;2022-12-18T00:47:51;-5.90;99.90
61412;DHT22;47278;49.732;7.690;2022-12-18T00:50:17;-5.90;99.90
61412;DHT22;47278;49.732;7.690;2022-12-18T00:52:43;-5.90;99.90
61412;DHT22;47278;49.732;7.690;2022-12-18T00:55:09;-5.70;99.90
61412;DHT22;47278;49.732;7.690;2022-12-18T00:57:34;-5.90;99.90
61412;DHT22;47278;49.732;7.690;2022-12-18T01:00:00;-5.90;99.90
61412;DHT22;47278;49.732;7.690;2022-12-18T01:02:26;-6.00;99.90
61412;DHT22;47278;49.732;7.690;2022-12-18T01:04:51;-6.10;99.90
61412;DHT22;47278;49.732;7.690;2022-12-18T01:07:17;-6.00;99.90
61412;DHT22;47278;49.732;7.690;2022-12-18T01:09:42;-6.10;99.90
61412;DHT22;47278;49.732;7.690;2022-12-18T01:12:08;-6.10;99.90
61412;DHT22;47278;49.732;7.690;2022-12-18T01:14:33;-5.10;99.90
61412;DHT22;47278;49.732;7.690;2022-12-18T01:16:59;-6.10;99.90
61412;DHT22;47278;49.732;7.690;2022-12-18T01:19:24;-6.20;99.90
61412;DHT22;47278;49.732;7.690;2022-12-18T01:21:50;-6.10;99.90
61412;DHT22;47278;49.732;7.690;2022-12-18T01:24:15;-6.20;99.90
61412;DHT22;47278;49.732;7.690;2022-12-18T01:26:41;-6.20;99.90
61412;DHT22;47278;49.732;7.690;2022-12-18T01:29:07;-6.20;99.90
61412;DHT22;47278;49.732;7.690;2022-12-18T01:31:33;-6.20;99.90
61412;DHT22;47278;49.732;7.690;2022-12-18T01:34:02;-6.30;99.90
61412;DHT22;47278;49.732;7.690;2022-12-18T01:36:29;-6.20;99.90
61412;DHT22;47278;49.732;7.690;2022-12-18T01:38:55;-6.20;99.90
61412;DHT22;47278;49.732;7.690;2022-12-18T01:41:22;-6.20;99.90
61412;DHT22;47278;49.732;7.690;2022-12-18T01:43:49;-6.10;99.90
61412;DHT22;47278;49.732;7.690;2022-12-18T01:46:16;-6.10;99.90
61412;DHT22;47278;49.732;7.690;2022-12-18T01:48:42;-6.10;99.90
61412;DHT22;47278;49.732;7.690;2022-12-18T01:51:09;-6.10;99.90
61412;DHT22;47278;49.732;7.690;2022-12-18T01:53:35;-6.10;99.90
61412;DHT22;47278;49.732;7.690;2022-12-18T01:56:01;-6.00;99.90
61412;DHT22;47278;49.732;7.690;2022-12-18T01:58:32;-5.90;99.90
61412;DHT22;47278;49.732;7.690;2022-12-18T02:01:00;-6.00;99.90
61412;DHT22;47278;49.732;7.690;2022-12-18T02:03:26;-5.90;99.90
61412;DHT22;47278;49.732;7.690;2022-12-18T02:08:25;-5.70;99.90
61412;DHT22;47278;49.732;7.690;2022-12-18T02:11:28;-5.90;99.90
61412;DHT22;47278;49.732;7.690;2022-12-18T02:16:34;-5.80;99.90
61412;DHT22;47278;49.732;7.690;2022-12-18T02:19:15;-5.90;99.90
61412;DHT22;47278;49.732;7.690;2022-12-18T02:21:49;-5.90;99.90
61412;DHT22;47278;49.732;7.690;2022-12-18T02:26:55;-5.80;99.90
61412;DHT22;47278;49.732;7.690;2022-12-18T02:29:26;-5.70;99.90
61412;DHT22;47278;49.732;7.690;2022-12-18T02:31:54;-5.80;99.90
61412;DHT22;47278;49.732;7.690;2022-12-18T02:34:22;-5.80;99.90
61412;DHT22;47278;49.732;7.690;2022-12-18T02:36:48;-5.80;99.90
61412;DHT22;47278;49.732;7.690;2022-12-18T02:39:15;-5.80;99.90
61412;DHT22;47278;49.732;7.690;2022-12-18T02:41:41;-5.70;99.90
61412;DHT22;47278;49.732;7.690;2022-12-18T02:44:08;-5.70;99.90
61412;DHT22;47278;49.732;7.690;2022-12-18T02:46:35;-5.80;99.90
61412;DHT22;47278;49.732;7.690;2022-12-18T02:49:26;-5.70;99.90
61412;DHT22;47278;49.732;7.690;2022-12-18T02:54:51;-8.10;99.90
61412;DHT22;47278;49.732;7.690;2022-12-18T02:57:24;-5.70;99.90
61412;DHT22;47278;49.732;7.690;2022-12-18T03:00:06;-5.70;99.90
61412;DHT22;47278;49.732;7.690;2022-12-18T03:02:41;-5.70;99.90
61412;DHT22;47278;49.732;7.690;2022-12-18T03:05:13;-5.70;99.90
61412;DHT22;47278;49.732;7.690;2022-12-18T03:07:42;-5.70;99.90
61412;DHT22;47278;49.732;7.690;2022-12-18T03:10:09;-5.80;99.90
61412;DHT22;47278;49.732;7.690;2022-12-18T03:12:38;-5.90;99.90
61412;DHT22;47278;49.732;7.690;2022-12-18T03:17:33;-5.80;99.90
61412;DHT22;47278;49.732;7.690;2022-12-18T03:20:02;-5.70;99.90
61412;DHT22;47278;49.732;7.690;2022-12-18T03:22:29;-5.70;99.90
61412;DHT22;47278;49.732;7.690;2022-12-18T03:24:56;-5.60;99.90
61412;DHT22;47278;49.732;7.690;2022-12-18T03:27:22;-5.60;99.90
61412;DHT22;47278;49.732;7.690;2022-12-18T03:29:54;-5.50;99.90
61412;DHT22;47278;49.732;7.690;2022-12-18T03:32:28;-5.60;99.90
61412;DHT22;47278;49.732;7.690;2022-12-18T03:34:57;-5.50;99.90
61412;DHT22;47278;49.732;7.690;2022-12-18T03:37:23;-5.40;99.90
61412;DHT22;47278;49.732;7.690;2022-12-18T03:39:49;-5.30;99.90
61412;DHT22;47278;49.732;7.690;2022-12-18T03:42:16;-5.40;99.90
61412;DHT22;47278;49.732;7.690;2022-12-18T03:47:36;-5.30;99.90
61412;DHT22;47278;49.732;7.690;2022-12-18T03:50:07;-5.40;99.90
61412;DHT22;47278;49.732;7.690;2022-12-18T03:52:36;-5.40;99.90
61412;DHT22;47278;49.732;7.690;2022-12-18T03:55:03;-5.40;99.90
61412;DHT22;47278;49.732;7.690;2022-12-18T03:57:30;-5.40;99.90
61412;DHT22;47278;49.732;7.690;2022-12-18T04:00:30;-5.40;99.90
61412;DHT22;47278;49.732;7.690;2022-12-18T04:02:50;-5.40;99.90
61412;DHT22;47278;49.732;7.690;2022-12-18T04:05:17;-5.40;99.90
61412;DHT22;47278;49.732;7.690;2022-12-18T04:07:43;-5.40;99.90
61412;DHT22;47278;49.732;7.690;2022-12-18T04:10:10;-5.40;99.90
61412;DHT22;47278;49.732;7.690;2022-12-18T04:12:36;-5.40;99.90
61412;DHT22;47278;49.732;7.690;2022-12-18T04:15:02;-5.40;99.90
61412;DHT22;47278;49.732;7.690;2022-12-18T04:17:28;-5.40;99.90
61412;DHT22;47278;49.732;7.690;2022-12-18T04:19:53;-5.40;99.90
61412;DHT22;47278;49.732;7.690;2022-12-18T04:22:19;-5.50;99.90
61412;DHT22;47278;49.732;7.690;2022-12-18T04:24:44;-5.50;99.90
61412;DHT22;47278;49.732;7.690;2022-12-18T04:27:10;-5.50;99.90
61412;DHT22;47278;49.732;7.690;2022-12-18T04:29:35;-5.50;99.90
61412;DHT22;47278;49.732;7.690;2022-12-18T04:32:01;-5.50;99.90
61412;DHT22;47278;49.732;7.690;2022-12-18T04:34:26;-5.50;99.90
61412;DHT22;47278;49.732;7.690;2022-12-18T04:36:52;-5.50;99.90
61412;DHT22;47278;49.732;7.690;2022-12-18T04:39:18;-5.50;99.90
61412;DHT22;47278;49.732;7.690;2022-12-18T04:41:43;-5.60;99.90
61412;DHT22;47278;49.732;7.690;2022-12-18T04:44:09;-5.50;99.90
61412;DHT22;47278;49.732;7.690;2022-12-18T04:46:34;-5.50;99.90
61412;DHT22;47278;49.732;7.690;2022-12-18T04:49:00;-4.40;99.90
61412;DHT22;47278;49.732;7.690;2022-12-18T04:51:25;-5.50;99.90
61412;DHT22;47278;49.732;7.690;2022-12-18T04:53:51;-5.60;99.90
61412;DHT22;47278;49.732;7.690;2022-12-18T04:56:16;-5.70;99.90
61412;DHT22;47278;49.732;7.690;2022-12-18T04:58:43;-5.60;99.90
61412;DHT22;47278;49.732;7.690;2022-12-18T05:01:10;-5.60;99.90
61412;DHT22;47278;49.732;7.690;2022-12-18T05:03:35;-5.50;99.90
61412;DHT22;47278;49.732;7.690;2022-12-18T05:06:01;-5.40;99.90
61412;DHT22;47278;49.732;7.690;2022-12-18T05:08:27;-5.50;99.90
61412;DHT22;47278;49.732;7.690;2022-12-18T05:11:02;-5.50;99.90
61412;DHT22;47278;49.732;7.690;2022-12-18T05:13:28;-5.60;99.90
61412;DHT22;47278;49.732;7.690;2022-12-18T05:15:54;-5.60;99.90
61412;DHT22;47278;49.732;7.690;2022-12-18T05:18:20;-5.70;99.90
61412;DHT22;47278;49.732;7.690;2022-12-18T05:20:46;-5.70;99.90
61412;DHT22;47278;49.732;7.690;2022-12-18T05:23:11;-5.80;99.90
61412;DHT22;47278;49.732;7.690;2022-12-18T05:25:37;-5.80;99.90
61412;DHT22;47278;49.732;7.690;2022-12-18T05:28:02;-5.80;99.90
61412;DHT22;47278;49.732;7.690;2022-12-18T05:30:28;-5.70;99.90
61412;DHT22;47278;49.732;7.690;2022-12-18T05:32:54;-5.70;99.90
61412;DHT22;47278;49.732;7.690;2022-12-18T05:35:19;-5.30;99.90
61412;DHT22;47278;49.732;7.690;2022-12-18T05:37:45;-5.70;99.90
61412;DHT22;47278;49.732;7.690;2022-12-18T05:40:11;-5.90;99.90
61412;DHT22;47278;49.732;7.690;2022-12-18T05:42:36;-5.80;99.90
61412;DHT22;47278;49.732;7.690;2022-12-18T05:45:02;-5.80;99.90
61412;DHT22;47278;49.732;7.690;2022-12-18T05:47:28;-8.50;99.90
61412;DHT22;47278;49.732;7.690;2022-12-18T05:49:54;-6.00;99.90
61412;DHT22;47278;49.732;7.690;2022-12-18T05:52:19;-5.90;99.90
61412;DHT22;47278;49.732;7.690;2022-12-18T05:54:45;-5.90;99.90
61412;DHT22;47278;49.732;7.690;2022-12-18T05:57:10;-6.10;99.90
61412;DHT22;47278;49.732;7.690;2022-12-18T05:59:36;-6.00;99.90
61412;DHT22;47278;49.732;7.690;2022-12-18T06:02:01;-6.00;99.90
61412;DHT22;47278;49.732;7.690;2022-12-18T06:04:30;-6.10;99.90
61412;DHT22;47278;49.732;7.690;2022-12-18T06:06:56;-6.00;99.90
61412;DHT22;47278;49.732;7.690;2022-12-18T06:09:21;-6.10;99.90
61412;DHT22;47278;49.732;7.690;2022-12-18T06:11:47;-5.90;99.90
61412;DHT22;47278;49.732;7.690;2022-12-18T06:14:12;-8.60;99.90
61412;DHT22;47278;49.732;7.690;2022-12-18T06:16:38;-6.00;99.90
61412;DHT22;47278;49.732;7.690;2022-12-18T06:19:04;-5.90;99.90
61412;DHT22;47278;49.732;7.690;2022-12-18T06:21:31;-5.90;99.90
61412;DHT22;47278;49.732;7.690;2022-12-18T06:23:56;-6.00;99.90
61412;DHT22;47278;49.732;7.690;2022-12-18T06:26:22;-6.00;99.90
61412;DHT22;47278;49.732;7.690;2022-12-18T06:28:48;-6.00;99.90
61412;DHT22;47278;49.732;7.690;2022-12-18T06:31:14;-6.00;99.90
61412;DHT22;47278;49.732;7.690;2022-12-18T06:33:39;-6.10;99.90
61412;DHT22;47278;49.732;7.690;2022-12-18T06:36:06;-6.10;99.90
61412;DHT22;47278;49.732;7.690;2022-12-18T06:38:33;-6.10;99.90
61412;DHT22;47278;49.732;7.690;2022-12-18T06:40:58;-6.10;99.90
61412;DHT22;47278;49.732;7.690;2022-12-18T06:43:24;-6.10;99.90
61412;DHT22;47278;49.732;7.690;2022-12-18T06:45:49;-5.60;99.90
61412;DHT22;47278;49.732;7.690;2022-12-18T06:48:18;-6.20;99.90
61412;DHT22;47278;49.732;7.690;2022-12-18T06:50:44;-6.30;99.90
61412;DHT22;47278;49.732;7.690;2022-12-18T06:53:10;-6.30;99.90
61412;DHT22;47278;49.732;7.690;2022-12-18T06:55:35;-6.30;99.90
61412;DHT22;47278;49.732;7.690;2022-12-18T06:58:01;-6.30;99.90
61412;DHT22;47278;49.732;7.690;2022-12-18T07:00:27;-6.20;99.90
61412;DHT22;47278;49.732;7.690;2022-12-18T07:02:52;-6.00;99.90
61412;DHT22;47278;49.732;7.690;2022-12-18T07:05:18;-6.10;99.90
61412;DHT22;47278;49.732;7.690;2022-12-18T07:07:43;-6.00;99.90
61412;DHT22;47278;49.732;7.690;2022-12-18T07:10:09;-6.10;99.90
61412;DHT22;47278;49.732;7.690;2022-12-18T07:12:34;-6.20;99.90
61412;DHT22;47278;49.732;7.690;2022-12-18T07:15:00;-6.20;99.90
61412;DHT22;47278;49.732;7.690;2022-12-18T07:17:26;-5.70;99.90
61412;DHT22;47278;49.732;7.690;2022-12-18T07:19:51;-6.30;99.90
61412;DHT22;47278;49.732;7.690;2022-12-18T07:22:17;-6.30;99.90
61412;DHT22;47278;49.732;7.690;2022-12-18T07:24:42;-6.20;99.90
61412;DHT22;47278;49.732;7.690;2022-12-18T07:27:08;-6.20;99.90
61412;DHT22;47278;49.732;7.690;2022-12-18T07:29:34;-6.20;99.90
61412;DHT22;47278;49.732;7.690;2022-12-18T07:31:59;-6.20;99.90
61412;DHT22;47278;49.732;7.690;2022-12-18T07:34:25;-6.10;99.90
61412;DHT22;47278;49.732;7.690;2022-12-18T07:36:50;-6.20;99.90
61412;DHT22;47278;49.732;7.690;2022-12-18T07:39:16;-6.20;99.90
61412;DHT22;47278;49.732;7.690;2022-12-18T07:41:42;-6.10;99.90
61412;DHT22;47278;49.732;7.690;2022-12-18T07:44:11;-6.00;99.90
61412;DHT22;47278;49.732;7.690;2022-12-18T07:46:37;-6.00;99.90
61412;DHT22;47278;49.732;7.690;2022-12-18T07:49:02;-6.00;99.90
61412;DHT22;47278;49.732;7.690;2022-12-18T07:51:28;-6.00;99.90
61412;DHT22;47278;49.732;7.690;2022-12-18T07:53:53;-5.80;99.90
61412;DHT22;47278;49.732;7.690;2022-12-18T07:56:19;-5.80;99.90
61412;DHT22;47278;49.732;7.690;2022-12-18T07:58:45;-5.80;99.90
61412;DHT22;47278;49.732;7.690;2022-12-18T08:01:11;-5.90;99.90
61412;DHT22;47278;49.732;7.690;2022-12-18T08:03:37;-5.90;99.90
61412;DHT22;47278;49.732;7.690;2022-12-18T08:06:04;-6.00;99.90
61412;DHT22;47278;49.732;7.690;2022-12-18T08:08:30;-6.10;99.90
61412;DHT22;47278;49.732;7.690;2022-12-18T08:10:56;-6.10;99.90
61412;DHT22;47278;49.732;7.690;2022-12-18T08:13:22;-6.00;99.90
61412;DHT22;47278;49.732;7.690;2022-12-18T08:16:04;-6.00;99.90
61412;DHT22;47278;49.732;7.690;2022-12-18T08:18:33;-6.00;99.90
61412;DHT22;47278;49.732;7.690;2022-12-18T08:21:09;-5.90;99.90
61412;DHT22;47278;49.732;7.690;2022-12-18T08:23:35;-5.90;99.90
61412;DHT22;47278;49.732;7.690;2022-12-18T08:26:01;-5.70;99.90
61412;DHT22;47278;49.732;7.690;2022-12-18T08:28:26;-5.70;99.90
61412;DHT22;47278;49.732;7.690;2022-12-18T08:30:52;-5.60;99.90
61412;DHT22;47278;49.732;7.690;2022-12-18T08:33:18;-5.70;99.90
61412;DHT22;47278;49.732;7.690;2022-12-18T08:35:43;-5.60;99.90
61412;DHT22;47278;49.732;7.690;2022-12-18T08:38:09;-5.70;99.90
61412;DHT22;47278;49.732;7.690;2022-12-18T08:40:34;-5.70;99.90
61412;DHT22;47278;49.732;7.690;2022-12-18T08:43:00;-5.70;99.90
61412;DHT22;47278;49.732;7.690;2022-12-18T08:45:44;-5.10;99.90
61412;DHT22;47278;49.732;7.690;2022-12-18T08:48:10;-5.70;99.90
61412;DHT22;47278;49.732;7.690;2022-12-18T08:50:36;-5.70;99.90
61412;DHT22;47278;49.732;7.690;2022-12-18T08:53:02;-5.80;99.90
61412;DHT22;47278;49.732;7.690;2022-12-18T08:55:30;-5.80;99.90
61412;DHT22;47278;49.732;7.690;2022-12-18T08:57:56;-5.70;99.90
61412;DHT22;47278;49.732;7.690;2022-12-18T09:00:21;-5.70;99.90
61412;DHT22;47278;49.732;7.690;2022-12-18T09:02:47;-5.70;99.90
61412;DHT22;47278;49.732;7.690;2022-12-18T09:05:12;-5.80;99.90
61412;DHT22;47278;49.732;7.690;2022-12-18T09:07:38;-6.50;99.90
61412;DHT22;47278;49.732;7.690;2022-12-18T09:10:03;-5.60;99.90
61412;DHT22;47278;49.732;7.690;2022-12-18T09:12:29;-5.90;99.90
61412;DHT22;47278;49.732;7.690;2022-12-18T09:14:55;-5.90;99.90
61412;DHT22;47278;49.732;7.690;2022-12-18T09:17:21;-4.10;99.90
61412;DHT22;47278;49.732;7.690;2022-12-18T09:19:47;-5.70;99.90
61412;DHT22;47278;49.732;7.690;2022-12-18T09:22:13;-5.70;99.90
61412;DHT22;47278;49.732;7.690;2022-12-18T09:24:38;-5.70;99.90
61412;DHT22;47278;49.732;7.690;2022-12-18T09:27:04;-5.40;99.90
61412;DHT22;47278;49.732;7.690;2022-12-18T09:29:30;-5.10;99.90
61412;DHT22;47278;49.732;7.690;2022-12-18T09:31:55;-5.60;99.90
61412;DHT22;47278;49.732;7.690;2022-12-18T09:34:21;-5.50;99.90
61412;DHT22;47278;49.732;7.690;2022-12-18T09:36:47;-5.50;99.90
61412;DHT22;47278;49.732;7.690;2022-12-18T09:39:13;-5.40;99.90
61412;DHT22;47278;49.732;7.690;2022-12-18T09:41:46;-5.40;99.90
61412;DHT22;47278;49.732;7.690;2022-12-18T09:44:17;-5.30;99.90
61412;DHT22;47278;49.732;7.690;2022-12-18T09:46:45;-5.10;99.90
61412;DHT22;47278;49.732;7.690;2022-12-18T09:49:12;-5.00;99.90
61412;DHT22;47278;49.732;7.690;2022-12-18T09:51:45;-5.00;99.90
61412;DHT22;47278;49.732;7.690;2022-12-18T09:54:14;-5.80;99.90
61412;DHT22;47278;49.732;7.690;2022-12-18T09:56:41;-4.70;99.90
61412;DHT22;47278;49.732;7.690;2022-12-18T09:59:09;-4.60;99.90
61412;DHT22;47278;49.732;7.690;2022-12-18T10:01:39;-4.80;99.90
61412;DHT22;47278;49.732;7.690;2022-12-18T10:04:05;-4.80;99.90
61412;DHT22;47278;49.732;7.690;2022-12-18T10:11:48;-4.30;99.90
61412;DHT22;47278;49.732;7.690;2022-12-18T10:14:25;-4.30;99.90
61412;DHT22;47278;49.732;7.690;2022-12-18T10:19:25;-4.10;99.90
61412;DHT22;47278;49.732;7.690;2022-12-18T10:21:53;-1.60;99.90
61412;DHT22;47278;49.732;7.690;2022-12-18T10:24:33;-3.90;99.90
61412;DHT22;47278;49.732;7.690;2022-12-18T10:27:09;-4.20;99.90
61412;DHT22;47278;49.732;7.690;2022-12-18T10:29:36;-4.30;99.90
61412;DHT22;47278;49.732;7.690;2022-12-18T10:32:02;-4.40;99.90
61412;DHT22;47278;49.732;7.690;2022-12-18T10:34:28;-4.20;99.90
61412;DHT22;47278;49.732;7.690;2022-12-18T10:36:53;-4.20;99.90
61412;DHT22;47278;49.732;7.690;2022-12-18T10:39:20;-4.10;99.90
61412;DHT22;47278;49.732;7.690;2022-12-18T10:41:47;-4.20;99.90
61412;DHT22;47278;49.732;7.690;2022-12-18T10:46:43;-4.00;99.90
61412;DHT22;47278;49.732;7.690;2022-12-18T10:49:26;-3.90;99.90
61412;DHT22;47278;49.732;7.690;2022-12-18T10:52:03;-3.80;99.90
61412;DHT22;47278;49.732;7.690;2022-12-18T10:54:30;-3.90;99.90
61412;DHT22;47278;49.732;7.690;2022-12-18T10:57:16;-4.00;99.90
61412;DHT22;47278;49.732;7.690;2022-12-18T10:59:50;-3.90;99.90
61412;DHT22;47278;49.732;7.690;2022-12-18T11:02:33;-4.00;99.90
61412;DHT22;47278;49.732;7.690;2022-12-18T11:04:59;-3.90;99.90
61412;DHT22;47278;49.732;7.690;2022-12-18T11:07:25;-3.80;99.90
61412;DHT22;47278;49.732;7.690;2022-12-18T11:10:02;-2.30;99.90
61412;DHT22;47278;49.732;7.690;2022-12-18T11:12:28;-3.70;99.90
61412;DHT22;47278;49.732;7.690;2022-12-18T11:14:54;-3.60;99.90
61412;DHT22;47278;49.732;7.690;2022-12-18T11:17:27;-3.40;99.90
61412;DHT22;47278;49.732;7.690;2022-12-18T11:19:55;-3.70;99.90
61412;DHT22;47278;49.732;7.690;2022-12-18T11:25:18;-3.60;99.90
61412;DHT22;47278;49.732;7.690;2022-12-18T11:32:46;-3.40;99.90
61412;DHT22;47278;49.732;7.690;2022-12-18T11:37:46;-3.30;99.90
61412;DHT22;47278;49.732;7.690;2022-12-18T11:40:17;-0.70;99.90
61412;DHT22;47278;49.732;7.690;2022-12-18T11:43:18;-3.20;99.90
61412;DHT22;47278;49.732;7.690;2022-12-18T11:45:35;-3.20;99.90
61412;DHT22;47278;49.732;7.690;2022-12-18T11:48:05;-3.10;99.90
61412;DHT22;47278;49.732;7.690;2022-12-18T11:50:51;-3.00;99.90
61412;DHT22;47278;49.732;7.690;2022-12-18T11:53:17;-3.00;99.90
61412;DHT22;47278;49.732;7.690;2022-12-18T11:58:26;-3.10;99.90
61412;DHT22;47278;49.732;7.690;2022-12-18T12:01:09;-3.00;99.90
61412;DHT22;47278;49.732;7.690;2022-12-18T12:03:44;-2.90;99.90
61412;DHT22;47278;49.732;7.690;2022-12-18T12:09:00;-2.90;99.90
61412;DHT22;47278;49.732;7.690;2022-12-18T12:16:51;-3.00;99.90
61412;DHT22;47278;49.732;7.690;2022-12-18T12:19:32;-3.10;99.90
61412;DHT22;47278;49.732;7.690;2022-12-18T12:22:45;-3.00;99.90
61412;DHT22;47278;49.732;7.690;2022-12-18T12:27:52;-2.90;99.90
61412;DHT22;47278;49.732;7.690;2022-12-18T12:30:21;-2.90;99.90
61412;DHT22;47278;49.732;7.690;2022-12-18T12:35:39;-2.80;99.90
61412;DHT22;47278;49.732;7.690;2022-12-18T12:40:39;-2.80;99.90
61412;DHT22;47278;49.732;7.690;2022-12-18T12:45:58;-2.60;99.90
61412;DHT22;47278;49.732;7.690;2022-12-18T12:51:08;-2.80;99.90
61412;DHT22;47278;49.732;7.690;2022-12-18T12:53:36;-2.70;99.90
61412;DHT22;47278;49.732;7.690;2022-12-18T12:56:03;-2.70;99.90
61412;DHT22;47278;49.732;7.690;2022-12-18T13:06:02;-2.90;99.90
61412;DHT22;47278;49.732;7.690;2022-12-18T13:08:31;-2.90;99.90
61412;DHT22;47278;49.732;7.690;2022-12-18T13:10:58;-2.90;99.90
61412;DHT22;47278;49.732;7.690;2022-12-18T13:13:48;-2.90;99.90
61412;DHT22;47278;49.732;7.690;2022-12-18T13:16:17;-2.90;99.90
61412;DHT22;47278;49.732;7.690;2022-12-18T13:18:50;-3.10;99.90
61412;DHT22;47278;49.732;7.690;2022-12-18T13:21:22;-3.20;99.90
61412;DHT22;47278;49.732;7.690;2022-12-18T13:23:50;-3.10;99.90
61412;DHT22;47278;49.732;7.690;2022-12-18T13:36:39;-3.10;99.90
61412;DHT22;47278;49.732;7.690;2022-12-18T13:39:49;-3.30;99.90
61412;DHT22;47278;49.732;7.690;2022-12-18T13:44:33;-3.30;99.90
61412;DHT22;47278;49.732;7.690;2022-12-18T13:47:04;-3.40;99.90
61412;DHT22;47278;49.732;7.690;2022-12-18T13:49:38;-3.40;99.90
61412;DHT22;47278;49.732;7.690;2022-12-18T13:52:22;-3.40;99.90
61412;DHT22;47278;49.732;7.690;2022-12-18T13:54:50;-3.50;99.90
61412;DHT22;47278;49.732;7.690;2022-12-18T13:59:52;-3.50;99.90
61412;DHT22;47278;49.732;7.690;2022-12-18T14:02:20;-3.60;99.90
61412;DHT22;47278;49.732;7.690;2022-12-18T14:04:48;-3.60;99.90
61412;DHT22;47278;49.732;7.690;2022-12-18T14:07:21;-3.50;99.90
61412;DHT22;47278;49.732;7.690;2022-12-18T14:09:52;-3.50;99.90
61412;DHT22;47278;49.732;7.690;2022-12-18T14:12:23;-2.50;99.90
61412;DHT22;47278;49.732;7.690;2022-12-18T14:17:40;-3.80;99.90
61412;DHT22;47278;49.732;7.690;2022-12-18T14:20:12;-3.80;99.90
61412;DHT22;47278;49.732;7.690;2022-12-18T14:22:39;-3.80;99.90
61412;DHT22;47278;49.732;7.690;2022-12-18T14:27:36;-3.80;99.90
61412;DHT22;47278;49.732;7.690;2022-12-18T14:30:16;-3.80;99.90
61412;DHT22;47278;49.732;7.690;2022-12-18T14:32:44;-3.90;99.90
61412;DHT22;47278;49.732;7.690;2022-12-18T14:35:24;-4.00;99.90
61412;DHT22;47278;49.732;7.690;2022-12-18T14:37:51;-4.00;99.90
61412;DHT22;47278;49.732;7.690;2022-12-18T14:40:21;-3.90;99.90
61412;DHT22;47278;49.732;7.690;2022-12-18T14:42:47;-4.00;99.90
61412;DHT22;47278;49.732;7.690;2022-12-18T14:47:59;-4.00;99.90
61412;DHT22;47278;49.732;7.690;2022-12-18T14:50:26;-4.10;99.90
61412;DHT22;47278;49.732;7.690;2022-12-18T14:52:52;-4.10;99.90
61412;DHT22;47278;49.732;7.690;2022-12-18T14:55:18;-4.10;99.90
61412;DHT22;47278;49.732;7.690;2022-12-18T14:57:45;-4.10;99.90
61412;DHT22;47278;49.732;7.690;2022-12-18T15:00:15;-4.10;99.90
61412;DHT22;47278;49.732;7.690;2022-12-18T15:02:42;-4.20;99.90
61412;DHT22;47278;49.732;7.690;2022-12-18T15:05:19;-4.10;99.90
61412;DHT22;47278;49.732;7.690;2022-12-18T15:07:48;-4.10;99.90
61412;DHT22;47278;49.732;7.690;2022-12-18T15:10:16;-4.20;99.90
61412;DHT22;47278;49.732;7.690;2022-12-18T15:18:00;-4.20;99.90
61412;DHT22;47278;49.732;7.690;2022-12-18T15:20:30;-4.20;99.90
61412;DHT22;47278;49.732;7.690;2022-12-18T15:22:59;-4.10;99.90
61412;DHT22;47278;49.732;7.690;2022-12-18T15:25:31;-4.10;99.90
61412;DHT22;47278;49.732;7.690;2022-12-18T15:27:58;-4.10;99.90
61412;DHT22;47278;49.732;7.690;2022-12-18T15:30:25;-4.00;99.90
61412;DHT22;47278;49.732;7.690;2022-12-18T15:32:52;-4.00;99.90
61412;DHT22;47278;49.732;7.690;2022-12-18T15:35:38;-4.00;99.90
61412;DHT22;47278;49.732;7.690;2022-12-18T15:38:06;-4.00;99.90
61412;DHT22;47278;49.732;7.690;2022-12-18T15:40:33;-4.10;99.90
61412;DHT22;47278;49.732;7.690;2022-12-18T15:42:59;-4.00;99.90
61412;DHT22;47278;49.732;7.690;2022-12-18T15:45:44;-4.00;99.90
61412;DHT22;47278;49.732;7.690;2022-12-18T15:48:21;-4.00;99.90
61412;DHT22;47278;49.732;7.690;2022-12-18T15:50:49;-4.00;99.90
61412;DHT22;47278;49.732;7.690;2022-12-18T15:53:15;-4.00;99.90
61412;DHT22;47278;49.732;7.690;2022-12-18T15:55:41;-4.00;99.90
61412;DHT22;47278;49.732;7.690;2022-12-18T15:58:26;-4.10;99.90
61412;DHT22;47278;49.732;7.690;2022-12-18T16:00:52;-4.00;99.90
61412;DHT22;47278;49.732;7.690;2022-12-18T16:03:18;-4.00;99.90
61412;DHT22;47278;49.732;7.690;2022-12-18T16:05:44;-3.80;99.90
61412;DHT22;47278;49.732;7.690;2022-12-18T16:08:09;-4.10;99.90
61412;DHT22;47278;49.732;7.690;2022-12-18T16:10:35;-4.10;99.90
61412;DHT22;47278;49.732;7.690;2022-12-18T16:13:00;-4.10;99.90
61412;DHT22;47278;49.732;7.690;2022-12-18T16:15:26;-4.10;99.90
61412;DHT22;47278;49.732;7.690;2022-12-18T16:17:51;-4.10;99.90
61412;DHT22;47278;49.732;7.690;2022-12-18T16:20:19;-4.10;99.90
61412;DHT22;47278;49.732;7.690;2022-12-18T16:22:46;-4.10;99.90
61412;DHT22;47278;49.732;7.690;2022-12-18T16:25:22;-4.20;99.90
61412;DHT22;47278;49.732;7.690;2022-12-18T16:27:48;-4.20;99.90
61412;DHT22;47278;49.732;7.690;2022-12-18T16:30:16;-4.20;99.90
61412;DHT22;47278;49.732;7.690;2022-12-18T16:32:42;-4.30;99.90
61412;DHT22;47278;49.732;7.690;2022-12-18T16:35:12;-4.40;99.90
61412;DHT22;47278;49.732;7.690;2022-12-18T16:37:38;-4.40;99.90
61412;DHT22;47278;49.732;7.690;2022-12-18T16:40:04;-4.30;99.90
61412;DHT22;47278;49.732;7.690;2022-12-18T16:42:30;-4.40;99.90
61412;DHT22;47278;49.732;7.690;2022-12-18T16:44:56;-4.30;99.90
61412;DHT22;47278;49.732;7.690;2022-12-18T16:47:21;-4.40;99.90
61412;DHT22;47278;49.732;7.690;2022-12-18T16:49:47;-2.90;99.90
61412;DHT22;47278;49.732;7.690;2022-12-18T16:52:15;-4.40;99.90
61412;DHT22;47278;49.732;7.690;2022-12-18T16:54:41;-4.40;99.90
61412;DHT22;47278;49.732;7.690;2022-12-18T16:57:08;-4.40;99.90
61412;DHT22;47278;49.732;7.690;2022-12-18T16:59:35;-4.40;99.90
61412;DHT22;47278;49.732;7.690;2022-12-18T17:02:00;-4.40;99.90
61412;DHT22;47278;49.732;7.690;2022-12-18T17:04:26;-4.50;99.90
61412;DHT22;47278;49.732;7.690;2022-12-18T17:06:51;-4.50;99.90
61412;DHT22;47278;49.732;7.690;2022-12-18T17:09:18;-4.50;99.90
61412;DHT22;47278;49.732;7.690;2022-12-18T17:11:51;-4.50;99.90
61412;DHT22;47278;49.732;7.690;2022-12-18T17:14:18;-4.50;99.90